Estación de Tierras Nobles
Ultimos registro cada 15 minutos 27
| N° | Estación | Fecha / Hora | Temperatura | Humedad | Lluvia | Velocidad | Dirección | Radiación | Presion |
| 27 | Tierras Nobles | 06-05-2026 06:30 | 10,8 | 48 | 0 | 2,2 | 9 | 0 | 1005,6 |
| 26 | Tierras Nobles | 06-05-2026 06:15 | 10,7 | 48 | 0 | 2,2 | 34 | 0 | 1005,8 |
| 25 | Tierras Nobles | 06-05-2026 06:00 | 10,8 | 48 | 0,4 | 1,8 | 22 | 0 | 1005,6 |
| 24 | Tierras Nobles | 06-05-2026 05:45 | 10,7 | 48 | 0,8 | 1,8 | 26 | 0 | 1005,7 |
| 23 | Tierras Nobles | 06-05-2026 05:30 | 10,8 | 48 | 0,8 | 0,9 | 347 | 0 | 1005,9 |
| 22 | Tierras Nobles | 06-05-2026 05:15 | 10,8 | 48 | 1,2 | 0,9 | 24 | 0 | 1005,8 |
| 21 | Tierras Nobles | 06-05-2026 05:00 | 10,9 | 48 | 0,2 | 1,8 | 11 | 0 | 1005,9 |
| 20 | Tierras Nobles | 06-05-2026 04:45 | 10,9 | 48 | 0 | 0,9 | 23 | 0 | 1005,9 |
| 19 | Tierras Nobles | 06-05-2026 04:30 | 10,9 | 48 | 0,2 | 2,2 | 24 | 0 | 1006 |
| 18 | Tierras Nobles | 06-05-2026 04:15 | 10,9 | 48 | 0,2 | 1,3 | 16 | 0 | 1006,1 |
| 17 | Tierras Nobles | 06-05-2026 04:00 | 10,9 | 48 | 0,2 | 1,3 | 21 | 0 | 1006,3 |
| 16 | Tierras Nobles | 06-05-2026 03:45 | 10,8 | 48 | 0,2 | 1,8 | 20 | 0 | 1006,3 |
| 15 | Tierras Nobles | 06-05-2026 03:30 | 10,8 | 48 | 0,2 | 2,7 | 24 | 0 | 1006,6 |
| 14 | Tierras Nobles | 06-05-2026 03:15 | 10,8 | 48 | 0,6 | 0,4 | 24 | 0 | 1006,8 |
| 13 | Tierras Nobles | 06-05-2026 03:00 | 10,8 | 48 | 0,2 | 0 | 7 | 0 | 1007 |
| 12 | Tierras Nobles | 06-05-2026 02:45 | 10,8 | 48 | 0,6 | 0 | 18 | 0 | 1007 |
| 11 | Tierras Nobles | 06-05-2026 02:30 | 10,8 | 48 | 1,4 | 0 | 34 | 0 | 1007,2 |
| 10 | Tierras Nobles | 06-05-2026 02:15 | 10,8 | 48 | 1,4 | 0 | 9 | 0 | 1007,4 |
| 9 | Tierras Nobles | 06-05-2026 02:00 | 10,8 | 48 | 0,8 | 0,9 | 26 | 0 | 1007,2 |
| 8 | Tierras Nobles | 06-05-2026 01:45 | 10,8 | 48 | 0,6 | 0 | 1 | 0 | 1007,3 |
| 7 | Tierras Nobles | 06-05-2026 01:30 | 10,7 | 48 | 0,8 | 0 | 44 | 0 | 1007,2 |
| 6 | Tierras Nobles | 06-05-2026 01:15 | 10,7 | 48 | 0,2 | 0 | 30 | 0 | 1007,1 |
| 5 | Tierras Nobles | 06-05-2026 01:00 | 10,6 | 49 | 0,6 | 0 | 61 | 0 | 1007,2 |
| 4 | Tierras Nobles | 06-05-2026 00:45 | 10,6 | 49 | 1 | 0,4 | 44 | 0 | 1007,6 |
| 3 | Tierras Nobles | 06-05-2026 00:30 | 10,6 | 49 | 1,4 | 0 | 16 | 0 | 1008,5 |
| 2 | Tierras Nobles | 06-05-2026 00:15 | 10,6 | 49 | 1,8 | 0 | 52 | 0 | 1008,3 |
| 1 | Tierras Nobles | 06-05-2026 00:00 | 10,6 | 49 | 1,4 | 0 | 53 | 0 | 1008,6 |